createdAt,value
2022-11-15T00:01:26.192Z,9.78
2022-11-15T00:03:54.725Z,9.70
2022-11-15T00:06:23.005Z,9.60
2022-11-15T00:08:51.260Z,9.45
2022-11-15T00:11:19.535Z,9.27
2022-11-15T00:13:49.571Z,9.09
2022-11-15T00:16:17.895Z,8.94
2022-11-15T00:18:50.404Z,8.81
2022-11-15T00:21:19.877Z,8.68
2022-11-15T00:23:48.173Z,8.58
2022-11-15T00:26:17.675Z,8.53
2022-11-15T00:28:46.032Z,8.55
2022-11-15T00:31:17.511Z,8.66
2022-11-15T00:33:46.936Z,8.79
2022-11-15T00:36:15.571Z,8.91
2022-11-15T00:38:43.993Z,9.02
2022-11-15T00:41:12.272Z,9.08
2022-11-15T00:43:41.090Z,9.11
2022-11-15T00:46:10.688Z,9.08
2022-11-15T00:48:40.384Z,9.00
2022-11-15T00:51:08.635Z,8.89
2022-11-15T00:53:37.125Z,8.76
2022-11-15T00:56:06.140Z,8.62
2022-11-15T00:58:34.644Z,8.50
2022-11-15T01:01:13.550Z,8.39
2022-11-15T01:03:43.815Z,8.29
2022-11-15T01:06:13.633Z,8.21
2022-11-15T01:08:42.215Z,8.20
2022-11-15T01:11:13.784Z,8.24
2022-11-15T01:13:42.518Z,8.34
2022-11-15T01:16:14.253Z,8.43
2022-11-15T01:18:43.922Z,8.56
2022-11-15T01:21:14.869Z,8.67
2022-11-15T01:23:43.367Z,8.76
2022-11-15T01:26:15.880Z,8.84
2022-11-15T01:28:45.082Z,8.90
2022-11-15T01:31:18.668Z,8.96
2022-11-15T01:33:49.607Z,9.02
2022-11-15T01:36:22.658Z,9.08
2022-11-15T01:38:56.307Z,9.13
2022-11-15T01:41:27.568Z,9.17
2022-11-15T01:43:58.438Z,9.23
2022-11-15T01:46:34.596Z,9.26
2022-11-15T01:49:13.495Z,9.30
2022-11-15T01:51:42.165Z,9.33
2022-11-15T01:54:15.752Z,9.38
2022-11-15T01:56:49.987Z,9.42
2022-11-15T01:59:18.559Z,9.44
2022-11-15T02:01:47.233Z,9.47
2022-11-15T02:04:21.474Z,9.49
2022-11-15T02:06:51.119Z,9.50
2022-11-15T02:09:20.096Z,9.54
2022-11-15T02:11:50.659Z,9.57
2022-11-15T02:14:21.552Z,9.58
2022-11-15T02:17:01.293Z,9.61
2022-11-15T02:20:11.838Z,9.62
2022-11-15T02:22:50.161Z,9.62
2022-11-15T02:25:40.706Z,9.65
2022-11-15T02:28:47.101Z,9.65
2022-11-15T02:31:27.594Z,9.66
2022-11-15T02:34:04.325Z,9.70
2022-11-15T02:36:43.781Z,9.71
2022-11-15T02:39:21.290Z,9.73
2022-11-15T02:41:54.893Z,9.74
2022-11-15T02:44:29.120Z,9.75
2022-11-15T02:47:16.498Z,9.75
2022-11-15T02:49:49.481Z,9.77
2022-11-15T02:52:19.032Z,9.78
2022-11-15T02:54:56.292Z,9.80
2022-11-15T02:57:40.400Z,9.82
2022-11-15T03:00:11.658Z,9.84
2022-11-15T03:03:11.638Z,9.84
2022-11-15T03:05:47.116Z,9.85
2022-11-15T03:08:25.659Z,9.87
2022-11-15T03:11:05.298Z,9.85
2022-11-15T03:13:39.959Z,9.88
2022-11-15T03:16:15.768Z,9.87
2022-11-15T03:18:52.362Z,9.88
2022-11-15T03:21:22.024Z,9.88
2022-11-15T03:23:52.787Z,9.91
2022-11-15T03:26:24.071Z,9.91
2022-11-15T03:28:55.277Z,9.93
2022-11-15T03:31:48.603Z,9.95
2022-11-15T03:34:28.648Z,9.95
2022-11-15T03:36:57.169Z,9.95
2022-11-15T03:39:27.234Z,9.99
2022-11-15T03:42:07.172Z,10.00
2022-11-15T03:44:44.121Z,10.01
2022-11-15T03:47:18.781Z,10.01
2022-11-15T03:49:55.062Z,10.01
2022-11-15T03:52:24.818Z,10.03
2022-11-15T03:54:56.177Z,10.05
2022-11-15T03:57:24.839Z,10.05
2022-11-15T03:59:53.127Z,10.06
2022-11-15T04:02:21.968Z,10.07
2022-11-15T04:04:51.597Z,10.06
2022-11-15T04:07:20.180Z,10.08
2022-11-15T04:10:07.341Z,10.07
2022-11-15T04:12:38.211Z,10.06
2022-11-15T04:15:10.439Z,10.08
2022-11-15T04:17:41.963Z,10.07
2022-11-15T04:20:33.583Z,10.07
2022-11-15T04:23:21.157Z,10.03
2022-11-15T04:25:53.251Z,10.07
2022-11-15T04:28:21.811Z,10.07
2022-11-15T04:30:50.231Z,10.09
2022-11-15T04:33:18.444Z,10.09
2022-11-15T04:36:08.152Z,10.10
2022-11-15T04:38:36.402Z,10.11
2022-11-15T04:41:05.535Z,10.12
2022-11-15T04:43:34.138Z,10.12
2022-11-15T04:46:02.516Z,10.12
2022-11-15T04:48:30.733Z,10.13
2022-11-15T04:51:00.358Z,10.15
2022-11-15T04:53:28.615Z,10.15
2022-11-15T04:55:58.676Z,10.15
2022-11-15T04:58:26.956Z,10.17
2022-11-15T05:00:55.274Z,10.17
2022-11-15T05:03:41.390Z,10.20
2022-11-15T05:06:10.989Z,10.20
2022-11-15T05:08:39.177Z,10.23
2022-11-15T05:11:07.802Z,10.26
2022-11-15T05:13:36.047Z,10.27
2022-11-15T05:16:04.357Z,10.28
2022-11-15T05:18:32.697Z,10.31
2022-11-15T05:21:06.693Z,10.32
2022-11-15T05:23:36.272Z,10.32
2022-11-15T05:26:09.351Z,10.35
2022-11-15T05:28:39.124Z,10.36
2022-11-15T05:31:10.278Z,10.37
2022-11-15T05:33:40.292Z,10.41
2022-11-15T05:36:14.595Z,10.43
2022-11-15T05:38:44.499Z,10.46
2022-11-15T05:41:13.581Z,10.49
2022-11-15T05:43:43.199Z,10.52
2022-11-15T05:46:11.891Z,10.54
2022-11-15T05:48:43.856Z,10.59
2022-11-15T05:51:12.421Z,10.62
2022-11-15T05:53:40.756Z,10.65
2022-11-15T05:56:12.182Z,10.69
2022-11-15T05:58:40.803Z,10.73
2022-11-15T06:01:11.104Z,10.78
2022-11-15T06:03:39.407Z,10.81
2022-11-15T06:06:12.247Z,10.86
2022-11-15T06:08:43.406Z,10.89
2022-11-15T06:11:13.028Z,10.94
2022-11-15T06:13:41.260Z,10.99
2022-11-15T06:16:09.842Z,11.02
2022-11-15T06:18:39.133Z,11.07
2022-11-15T06:21:08.121Z,11.11
2022-11-15T06:23:37.488Z,11.15
2022-11-15T06:26:06.132Z,11.18
2022-11-15T06:28:36.346Z,11.23
2022-11-15T06:31:06.149Z,11.26
2022-11-15T06:33:34.731Z,11.29
2022-11-15T06:36:04.224Z,11.34
2022-11-15T06:38:32.623Z,11.37
2022-11-15T06:41:04.882Z,11.40
2022-11-15T06:43:33.824Z,11.44
2022-11-15T06:46:04.999Z,11.47
2022-11-15T06:48:34.587Z,11.51
2022-11-15T06:51:05.088Z,11.55
2022-11-15T06:53:34.525Z,11.59
2022-11-15T06:56:04.214Z,11.64
2022-11-15T06:58:32.660Z,11.67
2022-11-15T07:01:04.340Z,11.72
2022-11-15T07:03:33.318Z,11.74
2022-11-15T07:06:07.143Z,11.77
2022-11-15T07:08:36.987Z,11.81
2022-11-15T07:11:08.441Z,11.85
2022-11-15T07:13:38.352Z,11.89
2022-11-15T07:16:11.096Z,11.95
2022-11-15T07:18:40.997Z,11.98
2022-11-15T07:21:11.948Z,12.00
2022-11-15T07:23:41.320Z,12.04
2022-11-15T07:26:10.741Z,12.07
2022-11-15T07:28:38.950Z,12.11
2022-11-15T07:31:10.570Z,12.13
2022-11-15T07:33:39.088Z,12.15
2022-11-15T07:36:16.365Z,12.16
2022-11-15T07:38:44.710Z,12.17
2022-11-15T07:41:13.032Z,12.19
2022-11-15T07:43:41.246Z,12.20
2022-11-15T07:46:12.385Z,12.23
2022-11-15T07:48:45.610Z,12.25
2022-11-15T07:51:15.487Z,12.27
2022-11-15T07:53:44.256Z,12.29
2022-11-15T07:56:13.229Z,12.33
2022-11-15T07:58:41.888Z,12.35
2022-11-15T08:01:13.413Z,12.41
2022-11-15T08:03:41.752Z,12.44
2022-11-15T08:06:10.111Z,12.47
2022-11-15T08:08:38.311Z,12.50
2022-11-15T08:11:07.561Z,12.54
2022-11-15T08:13:35.991Z,12.56
2022-11-15T08:16:06.602Z,12.59
2022-11-15T08:18:36.640Z,12.62
2022-11-15T08:21:05.861Z,12.65
2022-11-15T08:23:34.269Z,12.68
2022-11-15T08:26:04.041Z,12.71
2022-11-15T08:28:32.873Z,12.78
2022-11-15T08:31:01.318Z,12.83
2022-11-15T08:33:30.330Z,12.90
2022-11-15T08:36:01.491Z,12.96
2022-11-15T08:38:31.778Z,12.98
2022-11-15T08:41:04.830Z,13.02
2022-11-15T08:43:33.435Z,13.09
2022-11-15T08:46:01.949Z,13.18
2022-11-15T08:48:30.357Z,13.27
2022-11-15T08:51:02.429Z,13.35
2022-11-15T08:53:30.630Z,13.46
2022-11-15T08:55:58.882Z,13.59
2022-11-15T08:58:27.213Z,13.66
2022-11-15T09:00:56.056Z,13.72
2022-11-15T09:03:24.341Z,13.73
2022-11-15T09:05:59.337Z,13.74
2022-11-15T09:11:21.814Z,13.80
2022-11-15T09:13:50.164Z,13.81
2022-11-15T09:16:18.383Z,13.79
2022-11-15T09:18:46.765Z,13.80
2022-11-15T09:21:16.414Z,13.77
2022-11-15T09:23:44.691Z,13.75
2022-11-15T09:26:12.969Z,13.74
2022-11-15T09:28:42.844Z,13.74
2022-11-15T09:31:11.785Z,13.81
2022-11-15T09:33:40.052Z,13.88
2022-11-15T09:36:10.842Z,13.91
2022-11-15T09:38:40.757Z,13.92
2022-11-15T09:42:10.422Z,13.90
2022-11-15T09:45:12.528Z,13.97
2022-11-15T09:48:27.392Z,13.99
2022-11-15T09:51:00.811Z,14.03
2022-11-15T09:54:18.674Z,14.06
2022-11-15T09:56:31.254Z,14.08
2022-11-15T09:59:15.383Z,14.09
2022-11-15T10:01:56.345Z,14.09
2022-11-15T10:04:26.058Z,14.10
2022-11-15T10:07:02.288Z,14.13
2022-11-15T10:09:40.134Z,14.14
2022-11-15T10:12:11.343Z,14.14
2022-11-15T10:14:39.628Z,14.15
2022-11-15T10:17:36.827Z,14.14
2022-11-15T10:20:17.195Z,14.12
2022-11-15T10:22:49.450Z,14.13
2022-11-15T10:25:25.138Z,14.15
2022-11-15T10:27:59.466Z,14.16
2022-11-15T10:30:36.145Z,14.15
2022-11-15T10:33:34.687Z,14.14
2022-11-15T10:36:26.680Z,14.11
2022-11-15T10:39:01.064Z,14.09
2022-11-15T10:41:39.100Z,14.09
2022-11-15T10:44:27.991Z,14.09
2022-11-15T10:47:37.705Z,14.02
2022-11-15T10:50:27.661Z,14.03
2022-11-15T10:52:56.448Z,14.00
2022-11-15T10:55:29.311Z,14.00
2022-11-15T10:58:06.238Z,13.98
2022-11-15T11:00:40.914Z,13.97
2022-11-15T11:03:30.551Z,13.97
2022-11-15T11:06:12.336Z,13.98
2022-11-15T11:08:41.153Z,13.98
2022-11-15T11:11:10.113Z,14.01
2022-11-15T11:13:40.875Z,14.12
2022-11-15T11:16:44.325Z,14.17
2022-11-15T11:19:50.576Z,14.18
2022-11-15T11:22:28.508Z,14.21
2022-11-15T11:25:10.785Z,14.21
2022-11-15T11:27:52.729Z,14.24
2022-11-15T11:30:45.072Z,14.36
2022-11-15T11:33:19.607Z,14.53
2022-11-15T11:36:08.605Z,14.64
2022-11-15T11:38:55.898Z,14.64
2022-11-15T11:41:44.487Z,14.61
2022-11-15T11:44:29.972Z,14.60
2022-11-15T11:47:02.781Z,14.65
2022-11-15T11:49:42.275Z,14.74
2022-11-15T11:52:17.321Z,14.89
2022-11-15T11:55:00.925Z,15.05
2022-11-15T11:57:42.259Z,15.17
2022-11-15T12:00:21.754Z,15.28
2022-11-15T12:03:06.439Z,15.37
2022-11-15T12:05:41.621Z,15.38
2022-11-15T12:08:28.479Z,15.38
2022-11-15T12:11:05.880Z,15.45
2022-11-15T12:13:37.728Z,15.52
2022-11-15T12:16:14.640Z,15.61
2022-11-15T12:18:48.246Z,15.76
2022-11-15T12:21:28.876Z,15.86
2022-11-15T12:24:05.092Z,15.81
2022-11-15T12:26:38.828Z,15.70
2022-11-15T12:29:15.463Z,15.59
2022-11-15T12:31:48.143Z,15.51
2022-11-15T12:34:37.245Z,15.49
2022-11-15T12:37:49.840Z,15.41
2022-11-15T12:40:32.037Z,15.31
2022-11-15T12:43:43.425Z,15.15
2022-11-15T12:46:23.227Z,15.04
2022-11-15T12:48:56.376Z,15.11
2022-11-15T12:52:08.250Z,15.41
2022-11-15T12:55:26.335Z,15.62
2022-11-15T12:57:54.607Z,15.56
2022-11-15T13:00:47.981Z,15.42
2022-11-15T13:03:29.138Z,15.30
2022-11-15T13:06:09.075Z,15.12
2022-11-15T13:08:51.273Z,14.98
2022-11-15T13:11:53.417Z,14.89
2022-11-15T13:14:46.694Z,14.87
2022-11-15T13:17:38.686Z,14.90
2022-11-15T13:20:29.567Z,15.05
2022-11-15T13:23:10.653Z,15.27
2022-11-15T13:26:17.481Z,15.48
2022-11-15T13:28:49.582Z,15.51
2022-11-15T13:31:31.832Z,15.43
2022-11-15T13:34:07.321Z,15.36
2022-11-15T13:36:46.300Z,15.29
2022-11-15T13:39:28.599Z,15.20
2022-11-15T13:42:01.240Z,15.11
2022-11-15T13:44:32.844Z,14.98
2022-11-15T13:47:07.323Z,14.85
2022-11-15T13:49:36.638Z,14.72
2022-11-15T13:52:09.232Z,14.64
2022-11-15T13:54:43.963Z,14.58
2022-11-15T13:57:18.171Z,14.52
2022-11-15T13:59:52.935Z,14.47
2022-11-15T14:02:27.369Z,14.41
2022-11-15T14:04:58.767Z,14.36
2022-11-15T14:07:29.818Z,14.33
2022-11-15T14:09:58.286Z,14.28
2022-11-15T14:12:32.754Z,14.28
2022-11-15T14:15:04.565Z,14.25
2022-11-15T14:17:45.776Z,14.22
2022-11-15T14:20:29.538Z,14.17
2022-11-15T14:23:00.173Z,14.14
2022-11-15T14:25:29.618Z,14.08
2022-11-15T14:28:31.866Z,14.02
2022-11-15T14:31:02.067Z,13.99
2022-11-15T14:33:33.387Z,13.94
2022-11-15T14:36:07.423Z,13.90
2022-11-15T14:38:36.238Z,13.84
2022-11-15T14:41:04.932Z,13.79
2022-11-15T14:43:34.613Z,13.74
2022-11-15T14:46:03.041Z,13.68
2022-11-15T14:48:31.858Z,13.61
2022-11-15T14:51:00.316Z,13.55
2022-11-15T14:53:28.599Z,13.48
2022-11-15T14:55:56.841Z,13.42
2022-11-15T14:58:25.003Z,13.34
2022-11-15T15:00:54.652Z,13.25
2022-11-15T15:03:23.115Z,13.18
2022-11-15T15:05:51.561Z,13.10
2022-11-15T15:08:19.781Z,13.02
2022-11-15T15:10:49.313Z,12.94
2022-11-15T15:13:21.155Z,12.85
2022-11-15T15:15:51.064Z,12.77
2022-11-15T15:18:21.515Z,12.68
2022-11-15T15:21:00.954Z,12.60
2022-11-15T15:23:31.778Z,12.51
2022-11-15T15:26:00.254Z,12.42
2022-11-15T15:28:34.058Z,12.34
2022-11-15T15:31:03.403Z,12.24
2022-11-15T15:33:33.234Z,12.15
2022-11-15T15:36:01.610Z,12.08
2022-11-15T15:38:30.209Z,12.01
2022-11-15T15:41:00.563Z,11.93
2022-11-15T15:43:28.769Z,11.86
2022-11-15T15:45:57.139Z,11.84
2022-11-15T15:48:26.006Z,11.85
2022-11-15T15:50:55.564Z,11.90
2022-11-15T15:53:23.843Z,11.96
2022-11-15T15:55:51.987Z,12.02
2022-11-15T15:58:20.271Z,12.06
2022-11-15T16:00:48.511Z,12.08
2022-11-15T16:03:17.049Z,12.10
2022-11-15T16:05:45.323Z,12.09
2022-11-15T16:08:21.415Z,12.10
2022-11-15T16:10:50.893Z,12.11
2022-11-15T16:13:19.509Z,12.14
2022-11-15T16:15:52.748Z,12.15
2022-11-15T16:18:21.291Z,12.13
2022-11-15T16:20:53.133Z,12.09
2022-11-15T16:23:24.662Z,12.05
2022-11-15T16:25:56.604Z,12.01
2022-11-15T16:28:27.819Z,11.96
2022-11-15T16:31:04.955Z,11.93
2022-11-15T16:33:34.396Z,11.91
2022-11-15T16:36:03.508Z,11.91
2022-11-15T16:38:33.682Z,11.89
2022-11-15T16:41:02.257Z,11.91
2022-11-15T16:43:30.576Z,11.91
2022-11-15T16:45:59.020Z,11.92
2022-11-15T16:48:29.442Z,11.90
2022-11-15T16:50:59.595Z,11.94
2022-11-15T16:53:29.655Z,11.96
2022-11-15T16:55:59.513Z,11.98
2022-11-15T16:58:27.741Z,12.00
2022-11-15T17:00:58.050Z,12.00
2022-11-15T17:03:26.890Z,12.00
2022-11-15T17:05:59.457Z,11.99
2022-11-15T17:08:28.661Z,11.95
2022-11-15T17:10:58.654Z,11.91
2022-11-15T17:13:26.911Z,11.87
2022-11-15T17:16:06.854Z,11.83
2022-11-15T17:18:35.635Z,11.83
2022-11-15T17:21:08.834Z,11.83
2022-11-15T17:23:37.171Z,11.83
2022-11-15T17:26:28.704Z,11.84
2022-11-15T17:29:00.950Z,11.85
2022-11-15T17:31:30.714Z,11.87
2022-11-15T17:33:59.617Z,11.88
2022-11-15T17:36:28.106Z,11.89
2022-11-15T17:39:00.080Z,11.89
2022-11-15T17:41:31.382Z,11.89
2022-11-15T17:44:03.363Z,11.92
2022-11-15T17:46:32.180Z,11.93
2022-11-15T17:49:01.375Z,11.92
2022-11-15T17:51:29.699Z,11.92
2022-11-15T17:53:58.624Z,11.91
2022-11-15T17:56:31.582Z,11.87
2022-11-15T17:59:02.066Z,11.85
2022-11-15T18:01:32.585Z,11.81
2022-11-15T18:04:03.627Z,11.78
2022-11-15T18:06:34.769Z,11.75
2022-11-15T18:09:05.318Z,11.71
2022-11-15T18:11:38.673Z,11.69
2022-11-15T18:14:12.571Z,11.67
2022-11-15T18:16:41.165Z,11.66
2022-11-15T18:19:13.306Z,11.66
2022-11-15T18:21:57.217Z,11.63
2022-11-15T18:24:26.752Z,11.59
2022-11-15T18:26:57.013Z,11.55
2022-11-15T18:29:25.665Z,11.55
2022-11-15T18:31:56.220Z,11.57
2022-11-15T18:34:26.135Z,11.58
2022-11-15T18:36:55.714Z,11.58
2022-11-15T18:39:24.155Z,11.56
2022-11-15T18:41:52.432Z,11.54
2022-11-15T18:44:22.044Z,11.50
2022-11-15T18:46:50.940Z,11.47
2022-11-15T18:49:20.943Z,11.44
2022-11-15T18:51:50.162Z,11.40
2022-11-15T18:54:19.247Z,11.35
2022-11-15T18:56:48.023Z,11.28
2022-11-15T18:59:16.739Z,11.24
2022-11-15T19:01:48.424Z,11.17
2022-11-15T19:04:19.207Z,11.13
2022-11-15T19:06:50.820Z,11.07
2022-11-15T19:09:20.926Z,11.04
2022-11-15T19:11:51.651Z,11.02
2022-11-15T19:14:24.218Z,11.00
2022-11-15T19:16:55.122Z,11.01
2022-11-15T19:19:25.243Z,11.02
2022-11-15T19:21:54.272Z,11.07
2022-11-15T19:24:22.841Z,11.12
2022-11-15T19:26:51.161Z,11.19
2022-11-15T19:29:19.460Z,11.26
2022-11-15T19:31:48.653Z,11.33
2022-11-15T19:34:19.121Z,11.39
2022-11-15T19:36:47.507Z,11.44
2022-11-15T19:39:18.509Z,11.50
2022-11-15T19:41:47.750Z,11.57
2022-11-15T19:44:16.883Z,11.63
2022-11-15T19:46:45.339Z,11.69
2022-11-15T19:49:13.984Z,11.78
2022-11-15T19:51:45.340Z,11.86
2022-11-15T19:54:13.754Z,11.92
2022-11-15T19:56:42.076Z,11.98
2022-11-15T19:59:13.580Z,12.04
2022-11-15T20:01:48.017Z,12.10
2022-11-15T20:04:16.512Z,12.13
2022-11-15T20:06:46.425Z,12.18
2022-11-15T20:09:18.133Z,12.22
2022-11-15T20:11:46.404Z,12.27
2022-11-15T20:14:16.139Z,12.31
2022-11-15T20:16:44.440Z,12.35
2022-11-15T20:19:16.014Z,12.39
2022-11-15T20:21:46.074Z,12.41
2022-11-15T20:24:14.603Z,12.45
2022-11-15T20:26:43.870Z,12.48
2022-11-15T20:29:12.622Z,12.50
2022-11-15T20:31:41.077Z,12.53
2022-11-15T20:34:09.669Z,12.54
2022-11-15T20:36:37.989Z,12.58
2022-11-15T20:39:07.674Z,12.61
2022-11-15T20:41:36.039Z,12.64
2022-11-15T20:44:04.680Z,12.65
2022-11-15T20:46:33.033Z,12.69
2022-11-15T20:49:01.571Z,12.71
2022-11-15T20:51:33.281Z,12.73
2022-11-15T20:54:02.169Z,12.75
2022-11-15T20:56:31.907Z,12.77
2022-11-15T20:59:00.278Z,12.77
2022-11-15T21:01:28.817Z,12.79
2022-11-15T21:03:58.231Z,12.79
2022-11-15T21:06:27.849Z,12.80
2022-11-15T21:09:14.683Z,12.82
2022-11-15T21:12:02.567Z,12.82
2022-11-15T21:14:31.166Z,12.83
2022-11-15T21:16:59.499Z,12.85
2022-11-15T21:19:32.679Z,12.86
2022-11-15T21:22:06.175Z,12.85
2022-11-15T21:24:34.676Z,12.86
2022-11-15T21:27:04.942Z,12.84
2022-11-15T21:29:39.764Z,12.87
2022-11-15T21:32:10.104Z,12.86
2022-11-15T21:34:39.339Z,12.84
2022-11-15T21:37:08.726Z,12.82
2022-11-15T21:39:36.990Z,12.79
2022-11-15T21:42:06.974Z,12.77
2022-11-15T21:44:35.232Z,12.73
2022-11-15T21:47:03.582Z,12.71
2022-11-15T21:49:31.760Z,12.68
2022-11-15T21:52:00.066Z,12.64
2022-11-15T21:54:28.289Z,12.62
2022-11-15T21:56:56.657Z,12.60
2022-11-15T21:59:26.613Z,12.57
2022-11-15T22:02:12.259Z,12.54
2022-11-15T22:04:40.520Z,12.49
2022-11-15T22:07:09.091Z,12.48
2022-11-15T22:09:37.583Z,12.44
2022-11-15T22:12:06.035Z,12.41
2022-11-15T22:14:35.671Z,12.40
2022-11-15T22:17:05.563Z,12.39
2022-11-15T22:19:33.827Z,12.35
2022-11-15T22:22:02.044Z,12.32
2022-11-15T22:24:31.790Z,12.28
2022-11-15T22:27:00.653Z,12.25
2022-11-15T22:29:29.061Z,12.22
2022-11-15T22:31:58.649Z,12.21
2022-11-15T22:34:26.863Z,12.19
2022-11-15T22:37:19.790Z,12.18
2022-11-15T22:39:43.357Z,12.16
2022-11-15T22:42:11.627Z,12.13
2022-11-15T22:44:39.804Z,12.13
2022-11-15T22:47:09.409Z,12.09
2022-11-15T22:49:37.804Z,12.12
2022-11-15T22:52:06.544Z,12.13
2022-11-15T22:54:35.195Z,12.11
2022-11-15T22:57:04.139Z,12.11
2022-11-15T22:59:32.693Z,12.10
2022-11-15T23:02:00.981Z,12.10
2022-11-15T23:04:30.889Z,12.09
2022-11-15T23:06:59.402Z,12.04
2022-11-15T23:09:27.812Z,12.09
2022-11-15T23:12:13.628Z,12.09
2022-11-15T23:14:41.943Z,12.08
2022-11-15T23:17:10.209Z,12.08
2022-11-15T23:19:39.948Z,12.09
2022-11-15T23:22:26.073Z,12.07
2022-11-15T23:24:55.903Z,12.06
2022-11-15T23:27:24.114Z,12.08
2022-11-15T23:30:09.909Z,12.07
2022-11-15T23:32:55.965Z,12.08
2022-11-15T23:35:26.028Z,12.07
2022-11-15T23:37:54.259Z,12.07
2022-11-15T23:40:23.253Z,12.07
2022-11-15T23:42:51.686Z,12.07
2022-11-15T23:45:19.893Z,12.09
2022-11-15T23:47:48.126Z,12.09
2022-11-15T23:50:16.715Z,12.09
2022-11-15T23:52:46.289Z,12.09
2022-11-15T23:55:14.547Z,12.10
2022-11-15T23:57:42.879Z,12.10
